sensor_id;sensor_type;location;lat;lon;timestamp;temperature;humidity
15259;DHT22;34462;51.368;12.364;2022-09-01T00:00:25;14.80;99.90
15259;DHT22;34462;51.368;12.364;2022-09-01T00:02:56;14.90;99.90
15259;DHT22;34462;51.368;12.364;2022-09-01T00:05:26;15.00;99.90
15259;DHT22;34462;51.368;12.364;2022-09-01T00:07:54;15.00;99.90
15259;DHT22;34462;51.368;12.364;2022-09-01T00:10:22;15.10;99.90
15259;DHT22;34462;51.368;12.364;2022-09-01T00:12:50;15.20;99.90
15259;DHT22;34462;51.368;12.364;2022-09-01T00:15:18;15.20;99.90
15259;DHT22;34462;51.368;12.364;2022-09-01T00:17:47;15.30;99.90
15259;DHT22;34462;51.368;12.364;2022-09-01T00:20:15;15.30;99.90
15259;DHT22;34462;51.368;12.364;2022-09-01T00:22:48;15.30;99.90
15259;DHT22;34462;51.368;12.364;2022-09-01T00:25:17;15.30;99.90
15259;DHT22;34462;51.368;12.364;2022-09-01T00:27:46;15.30;99.90
15259;DHT22;34462;51.368;12.364;2022-09-01T00:30:15;15.40;99.90
15259;DHT22;34462;51.368;12.364;2022-09-01T00:32:43;15.50;99.90
15259;DHT22;34462;51.368;12.364;2022-09-01T00:35:13;15.40;99.90
15259;DHT22;34462;51.368;12.364;2022-09-01T00:37:41;15.40;99.90
15259;DHT22;34462;51.368;12.364;2022-09-01T00:40:14;15.40;99.90
15259;DHT22;34462;51.368;12.364;2022-09-01T00:42:43;15.30;99.90
15259;DHT22;34462;51.368;12.364;2022-09-01T00:45:11;15.30;99.90
15259;DHT22;34462;51.368;12.364;2022-09-01T00:47:40;15.20;99.90
15259;DHT22;34462;51.368;12.364;2022-09-01T00:50:11;15.20;99.90
15259;DHT22;34462;51.368;12.364;2022-09-01T00:52:45;15.10;99.90
15259;DHT22;34462;51.368;12.364;2022-09-01T00:55:22;15.00;99.90
15259;DHT22;34462;51.368;12.364;2022-09-01T00:57:52;15.00;99.90
15259;DHT22;34462;51.368;12.364;2022-09-01T01:00:23;15.00;99.90
15259;DHT22;34462;51.368;12.364;2022-09-01T01:02:53;14.90;99.90
15259;DHT22;34462;51.368;12.364;2022-09-01T01:05:25;14.90;99.90
15259;DHT22;34462;51.368;12.364;2022-09-01T01:07:59;14.80;99.90
15259;DHT22;34462;51.368;12.364;2022-09-01T01:10:33;14.70;99.90
15259;DHT22;34462;51.368;12.364;2022-09-01T01:13:11;14.60;99.90
15259;DHT22;34462;51.368;12.364;2022-09-01T01:15:41;14.70;99.90
15259;DHT22;34462;51.368;12.364;2022-09-01T01:18:10;14.60;99.90
15259;DHT22;34462;51.368;12.364;2022-09-01T01:20:40;14.60;99.90
15259;DHT22;34462;51.368;12.364;2022-09-01T01:23:32;14.60;99.90
15259;DHT22;34462;51.368;12.364;2022-09-01T01:26:07;14.50;99.90
15259;DHT22;34462;51.368;12.364;2022-09-01T01:28:39;14.50;99.90
15259;DHT22;34462;51.368;12.364;2022-09-01T01:31:12;14.40;99.90
15259;DHT22;34462;51.368;12.364;2022-09-01T01:33:43;14.40;99.90
15259;DHT22;34462;51.368;12.364;2022-09-01T01:36:16;14.30;99.90
15259;DHT22;34462;51.368;12.364;2022-09-01T01:38:48;14.30;99.90
15259;DHT22;34462;51.368;12.364;2022-09-01T01:41:18;14.20;99.90
15259;DHT22;34462;51.368;12.364;2022-09-01T01:43:47;14.20;99.90
15259;DHT22;34462;51.368;12.364;2022-09-01T01:46:16;14.20;99.90
15259;DHT22;34462;51.368;12.364;2022-09-01T01:48:48;14.20;99.90
15259;DHT22;34462;51.368;12.364;2022-09-01T01:51:20;14.20;99.90
15259;DHT22;34462;51.368;12.364;2022-09-01T01:53:50;14.10;99.90
15259;DHT22;34462;51.368;12.364;2022-09-01T01:56:21;14.10;99.90
15259;DHT22;34462;51.368;12.364;2022-09-01T01:58:51;14.00;99.90
15259;DHT22;34462;51.368;12.364;2022-09-01T02:01:20;14.00;99.90
15259;DHT22;34462;51.368;12.364;2022-09-01T02:03:50;14.00;99.90
15259;DHT22;34462;51.368;12.364;2022-09-01T02:06:21;14.00;99.90
15259;DHT22;34462;51.368;12.364;2022-09-01T02:08:52;14.10;99.90
15259;DHT22;34462;51.368;12.364;2022-09-01T02:11:23;14.00;99.90
15259;DHT22;34462;51.368;12.364;2022-09-01T02:13:52;13.90;99.90
15259;DHT22;34462;51.368;12.364;2022-09-01T02:16:22;13.90;99.90
15259;DHT22;34462;51.368;12.364;2022-09-01T02:18:51;13.90;99.90
15259;DHT22;34462;51.368;12.364;2022-09-01T02:21:22;13.80;99.90
15259;DHT22;34462;51.368;12.364;2022-09-01T02:23:54;13.80;99.90
15259;DHT22;34462;51.368;12.364;2022-09-01T02:26:29;13.70;99.90
15259;DHT22;34462;51.368;12.364;2022-09-01T02:29:00;13.70;99.90
15259;DHT22;34462;51.368;12.364;2022-09-01T02:31:31;13.70;99.90
15259;DHT22;34462;51.368;12.364;2022-09-01T02:34:01;13.70;99.90
15259;DHT22;34462;51.368;12.364;2022-09-01T02:36:30;13.70;99.90
15259;DHT22;34462;51.368;12.364;2022-09-01T02:39:00;13.70;99.90
15259;DHT22;34462;51.368;12.364;2022-09-01T02:41:30;13.70;99.90
15259;DHT22;34462;51.368;12.364;2022-09-01T02:44:00;13.60;99.90
15259;DHT22;34462;51.368;12.364;2022-09-01T02:46:29;13.60;99.90
15259;DHT22;34462;51.368;12.364;2022-09-01T02:48:57;13.50;99.90
15259;DHT22;34462;51.368;12.364;2022-09-01T02:51:27;13.50;99.90
15259;DHT22;34462;51.368;12.364;2022-09-01T02:53:57;13.50;99.90
15259;DHT22;34462;51.368;12.364;2022-09-01T02:56:26;13.50;99.90
15259;DHT22;34462;51.368;12.364;2022-09-01T02:58:55;13.40;99.90
15259;DHT22;34462;51.368;12.364;2022-09-01T03:01:29;13.40;99.90
15259;DHT22;34462;51.368;12.364;2022-09-01T03:04:00;13.40;99.90
15259;DHT22;34462;51.368;12.364;2022-09-01T03:06:31;13.30;99.90
15259;DHT22;34462;51.368;12.364;2022-09-01T03:09:04;13.30;99.90
15259;DHT22;34462;51.368;12.364;2022-09-01T03:11:39;13.30;99.90
15259;DHT22;34462;51.368;12.364;2022-09-01T03:14:09;13.20;99.90
15259;DHT22;34462;51.368;12.364;2022-09-01T03:16:39;13.20;99.90
15259;DHT22;34462;51.368;12.364;2022-09-01T03:19:08;13.10;99.90
15259;DHT22;34462;51.368;12.364;2022-09-01T03:21:39;13.10;99.90
15259;DHT22;34462;51.368;12.364;2022-09-01T03:24:10;13.10;99.90
15259;DHT22;34462;51.368;12.364;2022-09-01T03:26:42;13.00;99.90
15259;DHT22;34462;51.368;12.364;2022-09-01T03:29:17;13.00;99.90
15259;DHT22;34462;51.368;12.364;2022-09-01T03:31:45;13.00;99.90
15259;DHT22;34462;51.368;12.364;2022-09-01T03:34:14;13.00;99.90
15259;DHT22;34462;51.368;12.364;2022-09-01T03:36:46;13.00;99.90
15259;DHT22;34462;51.368;12.364;2022-09-01T03:39:17;13.00;99.90
15259;DHT22;34462;51.368;12.364;2022-09-01T03:41:45;12.90;99.90
15259;DHT22;34462;51.368;12.364;2022-09-01T03:44:14;12.90;99.90
15259;DHT22;34462;51.368;12.364;2022-09-01T03:46:44;12.90;99.90
15259;DHT22;34462;51.368;12.364;2022-09-01T03:49:12;12.90;99.90
15259;DHT22;34462;51.368;12.364;2022-09-01T03:51:41;12.90;99.90
15259;DHT22;34462;51.368;12.364;2022-09-01T03:54:11;12.80;99.90
15259;DHT22;34462;51.368;12.364;2022-09-01T03:56:40;12.80;99.90
15259;DHT22;34462;51.368;12.364;2022-09-01T03:59:09;12.80;99.90
15259;DHT22;34462;51.368;12.364;2022-09-01T04:01:44;12.80;99.90
15259;DHT22;34462;51.368;12.364;2022-09-01T04:04:13;12.80;99.90
15259;DHT22;34462;51.368;12.364;2022-09-01T04:06:43;12.80;99.90
15259;DHT22;34462;51.368;12.364;2022-09-01T04:09:12;12.80;99.90
15259;DHT22;34462;51.368;12.364;2022-09-01T04:11:41;12.80;99.90
15259;DHT22;34462;51.368;12.364;2022-09-01T04:14:12;12.80;99.90
15259;DHT22;34462;51.368;12.364;2022-09-01T04:16:43;12.80;99.90
15259;DHT22;34462;51.368;12.364;2022-09-01T04:19:33;12.70;99.90
15259;DHT22;34462;51.368;12.364;2022-09-01T04:22:04;12.70;99.90
15259;DHT22;34462;51.368;12.364;2022-09-01T04:24:39;12.70;99.90
15259;DHT22;34462;51.368;12.364;2022-09-01T04:27:12;12.70;99.90
15259;DHT22;34462;51.368;12.364;2022-09-01T04:29:43;12.70;99.90
15259;DHT22;34462;51.368;12.364;2022-09-01T04:32:13;12.70;99.90
15259;DHT22;34462;51.368;12.364;2022-09-01T04:34:42;12.70;99.90
15259;DHT22;34462;51.368;12.364;2022-09-01T04:37:12;12.80;99.90
15259;DHT22;34462;51.368;12.364;2022-09-01T04:39:48;12.80;99.90
15259;DHT22;34462;51.368;12.364;2022-09-01T04:42:23;12.80;99.90
15259;DHT22;34462;51.368;12.364;2022-09-01T04:44:55;12.90;99.90
15259;DHT22;34462;51.368;12.364;2022-09-01T04:47:29;12.90;99.90
15259;DHT22;34462;51.368;12.364;2022-09-01T04:50:03;12.90;99.90
15259;DHT22;34462;51.368;12.364;2022-09-01T04:52:40;12.90;99.90
15259;DHT22;34462;51.368;12.364;2022-09-01T04:55:13;13.00;99.90
15259;DHT22;34462;51.368;12.364;2022-09-01T04:57:45;12.90;99.90
15259;DHT22;34462;51.368;12.364;2022-09-01T05:00:17;13.00;99.90
15259;DHT22;34462;51.368;12.364;2022-09-01T05:02:53;13.00;99.90
15259;DHT22;34462;51.368;12.364;2022-09-01T05:05:35;13.10;99.90
15259;DHT22;34462;51.368;12.364;2022-09-01T05:08:09;13.10;99.90
15259;DHT22;34462;51.368;12.364;2022-09-01T05:10:50;13.10;99.90
15259;DHT22;34462;51.368;12.364;2022-09-01T05:13:22;13.20;99.90
15259;DHT22;34462;51.368;12.364;2022-09-01T05:16:00;13.30;99.90
15259;DHT22;34462;51.368;12.364;2022-09-01T05:18:31;13.40;99.90
15259;DHT22;34462;51.368;12.364;2022-09-01T05:21:04;13.40;99.90
15259;DHT22;34462;51.368;12.364;2022-09-01T05:23:36;13.40;99.90
15259;DHT22;34462;51.368;12.364;2022-09-01T05:26:12;13.50;99.90
15259;DHT22;34462;51.368;12.364;2022-09-01T05:28:42;13.50;99.90
15259;DHT22;34462;51.368;12.364;2022-09-01T05:31:11;13.50;99.90
15259;DHT22;34462;51.368;12.364;2022-09-01T05:33:41;13.60;99.90
15259;DHT22;34462;51.368;12.364;2022-09-01T05:36:13;13.60;99.90
15259;DHT22;34462;51.368;12.364;2022-09-01T05:38:43;13.70;99.90
15259;DHT22;34462;51.368;12.364;2022-09-01T05:41:16;13.70;99.90
15259;DHT22;34462;51.368;12.364;2022-09-01T05:43:48;13.80;99.90
15259;DHT22;34462;51.368;12.364;2022-09-01T05:46:25;13.80;99.90
15259;DHT22;34462;51.368;12.364;2022-09-01T05:48:57;14.00;99.90
15259;DHT22;34462;51.368;12.364;2022-09-01T05:51:28;14.10;99.90
15259;DHT22;34462;51.368;12.364;2022-09-01T05:54:11;14.20;99.90
15259;DHT22;34462;51.368;12.364;2022-09-01T05:56:41;14.50;99.90
15259;DHT22;34462;51.368;12.364;2022-09-01T05:59:11;14.40;99.90
15259;DHT22;34462;51.368;12.364;2022-09-01T06:01:49;14.60;99.90
15259;DHT22;34462;51.368;12.364;2022-09-01T06:04:21;14.70;99.90
15259;DHT22;34462;51.368;12.364;2022-09-01T06:06:51;15.00;99.90
15259;DHT22;34462;51.368;12.364;2022-09-01T06:09:35;15.10;99.90
15259;DHT22;34462;51.368;12.364;2022-09-01T06:12:05;15.40;99.90
15259;DHT22;34462;51.368;12.364;2022-09-01T06:14:34;15.50;99.90
15259;DHT22;34462;51.368;12.364;2022-09-01T06:17:03;15.70;99.90
15259;DHT22;34462;51.368;12.364;2022-09-01T06:19:33;15.80;99.90
15259;DHT22;34462;51.368;12.364;2022-09-01T06:22:03;16.00;99.90
15259;DHT22;34462;51.368;12.364;2022-09-01T06:24:33;16.00;99.90
15259;DHT22;34462;51.368;12.364;2022-09-01T06:27:02;16.10;99.90
15259;DHT22;34462;51.368;12.364;2022-09-01T06:29:36;16.30;99.90
15259;DHT22;34462;51.368;12.364;2022-09-01T06:32:05;16.40;99.90
15259;DHT22;34462;51.368;12.364;2022-09-01T06:34:38;16.50;99.90
15259;DHT22;34462;51.368;12.364;2022-09-01T06:37:10;16.60;99.90
15259;DHT22;34462;51.368;12.364;2022-09-01T06:39:38;16.80;99.90
15259;DHT22;34462;51.368;12.364;2022-09-01T06:42:07;17.00;99.90
15259;DHT22;34462;51.368;12.364;2022-09-01T06:44:39;17.10;99.90
15259;DHT22;34462;51.368;12.364;2022-09-01T06:47:07;17.30;99.90
15259;DHT22;34462;51.368;12.364;2022-09-01T06:49:37;17.60;99.90
15259;DHT22;34462;51.368;12.364;2022-09-01T06:52:07;17.80;99.90
15259;DHT22;34462;51.368;12.364;2022-09-01T06:54:35;18.00;99.90
15259;DHT22;34462;51.368;12.364;2022-09-01T06:57:05;18.30;99.90
15259;DHT22;34462;51.368;12.364;2022-09-01T06:59:53;18.30;99.90
15259;DHT22;34462;51.368;12.364;2022-09-01T07:02:22;18.30;99.90
15259;DHT22;34462;51.368;12.364;2022-09-01T07:04:54;18.40;99.90
15259;DHT22;34462;51.368;12.364;2022-09-01T07:07:22;18.50;99.90
15259;DHT22;34462;51.368;12.364;2022-09-01T07:10:13;18.50;99.90
15259;DHT22;34462;51.368;12.364;2022-09-01T07:12:48;18.70;99.90
15259;DHT22;34462;51.368;12.364;2022-09-01T07:15:32;18.90;99.90
15259;DHT22;34462;51.368;12.364;2022-09-01T07:18:24;18.70;99.90
15259;DHT22;34462;51.368;12.364;2022-09-01T07:20:54;18.60;99.90
15259;DHT22;34462;51.368;12.364;2022-09-01T07:23:43;18.60;99.90
15259;DHT22;34462;51.368;12.364;2022-09-01T07:26:32;18.40;99.90
15259;DHT22;34462;51.368;12.364;2022-09-01T07:29:03;18.20;99.90
15259;DHT22;34462;51.368;12.364;2022-09-01T07:31:35;18.10;99.90
15259;DHT22;34462;51.368;12.364;2022-09-01T07:34:26;18.00;99.90
15259;DHT22;34462;51.368;12.364;2022-09-01T07:37:13;17.70;99.90
15259;DHT22;34462;51.368;12.364;2022-09-01T07:40:06;17.60;99.90
15259;DHT22;34462;51.368;12.364;2022-09-01T07:42:56;17.40;99.90
15259;DHT22;34462;51.368;12.364;2022-09-01T07:45:28;17.40;99.90
15259;DHT22;34462;51.368;12.364;2022-09-01T07:47:57;17.20;99.90
15259;DHT22;34462;51.368;12.364;2022-09-01T07:50:33;17.10;99.90
15259;DHT22;34462;51.368;12.364;2022-09-01T07:53:26;17.10;99.90
15259;DHT22;34462;51.368;12.364;2022-09-01T07:55:58;17.20;99.90
15259;DHT22;34462;51.368;12.364;2022-09-01T07:58:28;17.30;99.90
15259;DHT22;34462;51.368;12.364;2022-09-01T08:00:57;17.20;99.90
15259;DHT22;34462;51.368;12.364;2022-09-01T08:03:29;17.40;99.90
15259;DHT22;34462;51.368;12.364;2022-09-01T08:06:03;17.50;99.90
15259;DHT22;34462;51.368;12.364;2022-09-01T08:08:36;17.70;99.90
15259;DHT22;34462;51.368;12.364;2022-09-01T08:11:06;17.70;99.90
15259;DHT22;34462;51.368;12.364;2022-09-01T08:13:36;17.60;99.90
15259;DHT22;34462;51.368;12.364;2022-09-01T08:16:08;17.80;99.90
15259;DHT22;34462;51.368;12.364;2022-09-01T08:18:46;17.80;99.90
15259;DHT22;34462;51.368;12.364;2022-09-01T08:21:17;17.90;99.90
15259;DHT22;34462;51.368;12.364;2022-09-01T08:23:49;18.00;99.90
15259;DHT22;34462;51.368;12.364;2022-09-01T08:26:21;18.10;99.90
15259;DHT22;34462;51.368;12.364;2022-09-01T08:28:51;18.20;99.90
15259;DHT22;34462;51.368;12.364;2022-09-01T08:31:22;18.40;99.90
15259;DHT22;34462;51.368;12.364;2022-09-01T08:33:56;18.40;99.90
15259;DHT22;34462;51.368;12.364;2022-09-01T08:36:25;18.20;99.90
15259;DHT22;34462;51.368;12.364;2022-09-01T08:38:55;18.10;99.90
15259;DHT22;34462;51.368;12.364;2022-09-01T08:41:33;18.10;99.90
15259;DHT22;34462;51.368;12.364;2022-09-01T08:44:20;18.00;99.90
15259;DHT22;34462;51.368;12.364;2022-09-01T08:47:00;17.90;99.90
15259;DHT22;34462;51.368;12.364;2022-09-01T08:49:33;17.90;99.90
15259;DHT22;34462;51.368;12.364;2022-09-01T08:52:16;17.90;99.90
15259;DHT22;34462;51.368;12.364;2022-09-01T08:54:55;18.00;99.90
15259;DHT22;34462;51.368;12.364;2022-09-01T08:57:32;18.00;99.90
15259;DHT22;34462;51.368;12.364;2022-09-01T09:00:03;17.90;99.90
15259;DHT22;34462;51.368;12.364;2022-09-01T09:02:42;17.80;99.90
15259;DHT22;34462;51.368;12.364;2022-09-01T09:05:27;17.80;99.90
15259;DHT22;34462;51.368;12.364;2022-09-01T09:08:34;17.70;99.90
15259;DHT22;34462;51.368;12.364;2022-09-01T09:11:48;17.90;99.90
15259;DHT22;34462;51.368;12.364;2022-09-01T09:14:40;18.10;99.90
15259;DHT22;34462;51.368;12.364;2022-09-01T09:17:21;18.30;99.90
15259;DHT22;34462;51.368;12.364;2022-09-01T09:19:53;18.50;99.90
15259;DHT22;34462;51.368;12.364;2022-09-01T09:22:22;18.80;99.90
15259;DHT22;34462;51.368;12.364;2022-09-01T09:24:52;19.00;99.90
15259;DHT22;34462;51.368;12.364;2022-09-01T09:27:29;19.10;99.90
15259;DHT22;34462;51.368;12.364;2022-09-01T09:30:03;19.30;99.90
15259;DHT22;34462;51.368;12.364;2022-09-01T09:32:46;19.40;99.90
15259;DHT22;34462;51.368;12.364;2022-09-01T09:35:39;19.50;99.90
15259;DHT22;34462;51.368;12.364;2022-09-01T09:38:19;19.70;99.90
15259;DHT22;34462;51.368;12.364;2022-09-01T09:40:59;19.80;99.90
15259;DHT22;34462;51.368;12.364;2022-09-01T09:43:47;19.80;99.90
15259;DHT22;34462;51.368;12.364;2022-09-01T09:46:33;19.90;99.90
15259;DHT22;34462;51.368;12.364;2022-09-01T09:49:14;20.00;99.90
15259;DHT22;34462;51.368;12.364;2022-09-01T09:52:13;20.10;99.90
15259;DHT22;34462;51.368;12.364;2022-09-01T09:55:02;20.20;99.90
15259;DHT22;34462;51.368;12.364;2022-09-01T09:57:38;20.30;99.90
15259;DHT22;34462;51.368;12.364;2022-09-01T10:00:18;20.30;99.90
15259;DHT22;34462;51.368;12.364;2022-09-01T10:02:56;20.40;99.90
15259;DHT22;34462;51.368;12.364;2022-09-01T10:05:37;20.40;99.90
15259;DHT22;34462;51.368;12.364;2022-09-01T10:08:11;20.40;99.90
15259;DHT22;34462;51.368;12.364;2022-09-01T10:10:46;20.40;99.90
15259;DHT22;34462;51.368;12.364;2022-09-01T10:13:26;20.60;99.90
15259;DHT22;34462;51.368;12.364;2022-09-01T10:16:01;20.60;99.90
15259;DHT22;34462;51.368;12.364;2022-09-01T10:18:39;20.60;99.90
15259;DHT22;34462;51.368;12.364;2022-09-01T10:21:14;20.70;99.90
15259;DHT22;34462;51.368;12.364;2022-09-01T10:23:44;20.60;99.90
15259;DHT22;34462;51.368;12.364;2022-09-01T10:26:15;20.70;99.90
15259;DHT22;34462;51.368;12.364;2022-09-01T10:28:54;20.80;99.90
15259;DHT22;34462;51.368;12.364;2022-09-01T10:31:28;20.90;99.90
15259;DHT22;34462;51.368;12.364;2022-09-01T10:34:01;20.90;99.90
15259;DHT22;34462;51.368;12.364;2022-09-01T10:36:32;21.00;99.90
15259;DHT22;34462;51.368;12.364;2022-09-01T10:39:05;21.20;99.90
15259;DHT22;34462;51.368;12.364;2022-09-01T10:41:51;21.30;99.90
15259;DHT22;34462;51.368;12.364;2022-09-01T10:44:27;21.50;99.90
15259;DHT22;34462;51.368;12.364;2022-09-01T10:47:02;21.70;99.90
15259;DHT22;34462;51.368;12.364;2022-09-01T10:49:56;21.80;99.90
15259;DHT22;34462;51.368;12.364;2022-09-01T10:52:55;22.00;99.90
15259;DHT22;34462;51.368;12.364;2022-09-01T10:55:42;22.20;99.90
15259;DHT22;34462;51.368;12.364;2022-09-01T10:58:38;22.30;99.90
15259;DHT22;34462;51.368;12.364;2022-09-01T11:02:11;22.50;99.90
15259;DHT22;34462;51.368;12.364;2022-09-01T11:05:13;22.60;99.90
15259;DHT22;34462;51.368;12.364;2022-09-01T11:07:43;22.50;99.90
15259;DHT22;34462;51.368;12.364;2022-09-01T11:10:53;22.50;99.90
15259;DHT22;34462;51.368;12.364;2022-09-01T11:13:40;22.70;99.90
15259;DHT22;34462;51.368;12.364;2022-09-01T11:16:33;23.00;99.90
15259;DHT22;34462;51.368;12.364;2022-09-01T11:19:38;23.00;99.90
15259;DHT22;34462;51.368;12.364;2022-09-01T11:22:40;22.90;99.90
15259;DHT22;34462;51.368;12.364;2022-09-01T11:25:38;22.60;99.90
15259;DHT22;34462;51.368;12.364;2022-09-01T11:28:37;22.60;99.90
15259;DHT22;34462;51.368;12.364;2022-09-01T11:31:23;22.50;99.90
15259;DHT22;34462;51.368;12.364;2022-09-01T11:34:08;22.60;99.90
15259;DHT22;34462;51.368;12.364;2022-09-01T11:36:57;22.60;99.90
15259;DHT22;34462;51.368;12.364;2022-09-01T11:39:36;22.60;99.90
15259;DHT22;34462;51.368;12.364;2022-09-01T11:42:17;22.70;99.90
15259;DHT22;34462;51.368;12.364;2022-09-01T11:44:51;22.60;99.90
15259;DHT22;34462;51.368;12.364;2022-09-01T11:47:27;22.50;99.90
15259;DHT22;34462;51.368;12.364;2022-09-01T11:50:01;22.40;99.90
15259;DHT22;34462;51.368;12.364;2022-09-01T11:52:35;22.30;99.90
15259;DHT22;34462;51.368;12.364;2022-09-01T11:55:08;22.30;99.90
15259;DHT22;34462;51.368;12.364;2022-09-01T11:57:39;22.40;99.90
15259;DHT22;34462;51.368;12.364;2022-09-01T12:00:10;22.40;99.90
15259;DHT22;34462;51.368;12.364;2022-09-01T12:02:45;22.30;99.90
15259;DHT22;34462;51.368;12.364;2022-09-01T12:05:27;22.40;99.90
15259;DHT22;34462;51.368;12.364;2022-09-01T12:07:59;22.30;99.90
15259;DHT22;34462;51.368;12.364;2022-09-01T12:10:33;22.30;99.90
15259;DHT22;34462;51.368;12.364;2022-09-01T12:13:06;22.20;99.90
15259;DHT22;34462;51.368;12.364;2022-09-01T12:15:37;22.20;99.90
15259;DHT22;34462;51.368;12.364;2022-09-01T12:18:29;22.30;99.90
15259;DHT22;34462;51.368;12.364;2022-09-01T12:21:03;22.30;99.90
15259;DHT22;34462;51.368;12.364;2022-09-01T12:23:36;22.30;99.90
15259;DHT22;34462;51.368;12.364;2022-09-01T12:26:11;22.30;99.90
15259;DHT22;34462;51.368;12.364;2022-09-01T12:28:41;22.30;99.90
15259;DHT22;34462;51.368;12.364;2022-09-01T12:31:13;22.40;99.90
15259;DHT22;34462;51.368;12.364;2022-09-01T12:33:44;22.30;99.90
15259;DHT22;34462;51.368;12.364;2022-09-01T12:36:22;22.40;99.90
15259;DHT22;34462;51.368;12.364;2022-09-01T12:38:54;22.40;99.90
15259;DHT22;34462;51.368;12.364;2022-09-01T12:41:30;22.40;99.90
15259;DHT22;34462;51.368;12.364;2022-09-01T12:44:25;22.50;99.90
15259;DHT22;34462;51.368;12.364;2022-09-01T12:46:58;22.40;99.90
15259;DHT22;34462;51.368;12.364;2022-09-01T12:49:37;22.50;99.90
15259;DHT22;34462;51.368;12.364;2022-09-01T12:52:24;22.40;99.90
15259;DHT22;34462;51.368;12.364;2022-09-01T12:55:09;22.20;99.90
15259;DHT22;34462;51.368;12.364;2022-09-01T12:58:03;22.20;99.90
15259;DHT22;34462;51.368;12.364;2022-09-01T13:00:35;22.00;99.90
15259;DHT22;34462;51.368;12.364;2022-09-01T13:03:10;22.00;99.90
15259;DHT22;34462;51.368;12.364;2022-09-01T13:05:41;21.80;99.90
15259;DHT22;34462;51.368;12.364;2022-09-01T13:08:12;21.70;99.90
15259;DHT22;34462;51.368;12.364;2022-09-01T13:10:47;21.70;99.90
15259;DHT22;34462;51.368;12.364;2022-09-01T13:13:19;21.70;99.90
15259;DHT22;34462;51.368;12.364;2022-09-01T13:15:51;21.90;99.90
15259;DHT22;34462;51.368;12.364;2022-09-01T13:18:24;22.10;99.90
15259;DHT22;34462;51.368;12.364;2022-09-01T13:20:53;22.30;99.90
15259;DHT22;34462;51.368;12.364;2022-09-01T13:23:23;22.60;99.90
15259;DHT22;34462;51.368;12.364;2022-09-01T13:25:52;22.80;99.90
15259;DHT22;34462;51.368;12.364;2022-09-01T13:28:20;23.00;99.90
15259;DHT22;34462;51.368;12.364;2022-09-01T13:30:56;23.20;99.90
15259;DHT22;34462;51.368;12.364;2022-09-01T13:33:46;23.30;99.90
15259;DHT22;34462;51.368;12.364;2022-09-01T13:36:34;23.50;99.90
15259;DHT22;34462;51.368;12.364;2022-09-01T13:39:14;23.50;99.90
15259;DHT22;34462;51.368;12.364;2022-09-01T13:41:45;23.60;99.90
15259;DHT22;34462;51.368;12.364;2022-09-01T13:44:14;23.60;99.90
15259;DHT22;34462;51.368;12.364;2022-09-01T13:46:43;23.50;99.90
15259;DHT22;34462;51.368;12.364;2022-09-01T13:49:32;23.40;99.90
15259;DHT22;34462;51.368;12.364;2022-09-01T13:52:20;23.40;99.90
15259;DHT22;34462;51.368;12.364;2022-09-01T13:54:48;23.20;99.90
15259;DHT22;34462;51.368;12.364;2022-09-01T13:57:17;23.20;99.90
15259;DHT22;34462;51.368;12.364;2022-09-01T13:59:45;23.00;99.90
15259;DHT22;34462;51.368;12.364;2022-09-01T14:02:13;22.90;99.90
15259;DHT22;34462;51.368;12.364;2022-09-01T14:04:42;22.90;99.90
15259;DHT22;34462;51.368;12.364;2022-09-01T14:07:10;22.80;99.90
15259;DHT22;34462;51.368;12.364;2022-09-01T14:09:38;22.70;99.90
15259;DHT22;34462;51.368;12.364;2022-09-01T14:12:06;22.80;99.90
15259;DHT22;34462;51.368;12.364;2022-09-01T14:14:36;22.80;99.90
15259;DHT22;34462;51.368;12.364;2022-09-01T14:17:24;23.00;99.90
15259;DHT22;34462;51.368;12.364;2022-09-01T14:19:52;23.10;99.90
15259;DHT22;34462;51.368;12.364;2022-09-01T14:22:21;23.20;99.90
15259;DHT22;34462;51.368;12.364;2022-09-01T14:24:49;23.20;99.90
15259;DHT22;34462;51.368;12.364;2022-09-01T14:27:17;23.30;99.90
15259;DHT22;34462;51.368;12.364;2022-09-01T14:29:49;23.40;99.90
15259;DHT22;34462;51.368;12.364;2022-09-01T14:32:21;23.40;99.90
15259;DHT22;34462;51.368;12.364;2022-09-01T14:34:52;23.40;99.90
15259;DHT22;34462;51.368;12.364;2022-09-01T14:37:21;23.30;99.90
15259;DHT22;34462;51.368;12.364;2022-09-01T14:39:50;23.20;99.90
15259;DHT22;34462;51.368;12.364;2022-09-01T14:42:19;23.10;99.90
15259;DHT22;34462;51.368;12.364;2022-09-01T14:44:51;23.00;99.90
15259;DHT22;34462;51.368;12.364;2022-09-01T14:47:19;22.90;99.90
15259;DHT22;34462;51.368;12.364;2022-09-01T14:49:50;22.80;99.90
15259;DHT22;34462;51.368;12.364;2022-09-01T14:52:19;22.70;99.90
15259;DHT22;34462;51.368;12.364;2022-09-01T14:54:48;22.60;99.90
15259;DHT22;34462;51.368;12.364;2022-09-01T14:57:16;22.60;99.90
15259;DHT22;34462;51.368;12.364;2022-09-01T15:00:07;22.60;99.90
15259;DHT22;34462;51.368;12.364;2022-09-01T15:02:40;22.60;99.90
15259;DHT22;34462;51.368;12.364;2022-09-01T15:05:11;22.50;99.90
15259;DHT22;34462;51.368;12.364;2022-09-01T15:07:40;22.40;99.90
15259;DHT22;34462;51.368;12.364;2022-09-01T15:10:10;22.30;99.90
15259;DHT22;34462;51.368;12.364;2022-09-01T15:12:52;22.30;99.90
15259;DHT22;34462;51.368;12.364;2022-09-01T15:15:23;22.40;99.90
15259;DHT22;34462;51.368;12.364;2022-09-01T15:17:53;22.50;99.90
15259;DHT22;34462;51.368;12.364;2022-09-01T15:20:22;22.40;99.90
15259;DHT22;34462;51.368;12.364;2022-09-01T15:23:08;22.50;99.90
15259;DHT22;34462;51.368;12.364;2022-09-01T15:25:37;22.60;99.90
15259;DHT22;34462;51.368;12.364;2022-09-01T15:28:05;22.60;99.90
15259;DHT22;34462;51.368;12.364;2022-09-01T15:30:36;22.60;99.90
15259;DHT22;34462;51.368;12.364;2022-09-01T15:33:06;22.60;99.90
15259;DHT22;34462;51.368;12.364;2022-09-01T15:35:41;22.60;99.90
15259;DHT22;34462;51.368;12.364;2022-09-01T15:38:10;22.60;99.90
15259;DHT22;34462;51.368;12.364;2022-09-01T15:40:44;22.50;99.90
15259;DHT22;34462;51.368;12.364;2022-09-01T15:43:24;22.50;99.90
15259;DHT22;34462;51.368;12.364;2022-09-01T15:45:55;22.40;99.90
15259;DHT22;34462;51.368;12.364;2022-09-01T15:48:25;22.40;99.90
15259;DHT22;34462;51.368;12.364;2022-09-01T15:51:06;22.30;99.90
15259;DHT22;34462;51.368;12.364;2022-09-01T15:53:58;22.10;99.90
15259;DHT22;34462;51.368;12.364;2022-09-01T15:56:28;22.00;99.90
15259;DHT22;34462;51.368;12.364;2022-09-01T15:58:57;22.00;99.90
15259;DHT22;34462;51.368;12.364;2022-09-01T16:01:31;21.90;99.90